createdAt,value
2022-08-16T00:00:03.719Z,16.81
2022-08-16T00:01:01.408Z,16.80
2022-08-16T00:02:01.454Z,16.85
2022-08-16T00:03:02.406Z,16.65
2022-08-16T00:04:01.371Z,16.77
2022-08-16T00:05:01.357Z,16.78
2022-08-16T00:06:01.343Z,16.69
2022-08-16T00:07:01.329Z,16.70
2022-08-16T00:08:01.314Z,16.70
2022-08-16T00:09:01.296Z,16.65
2022-08-16T00:10:01.293Z,16.70
2022-08-16T00:11:01.277Z,16.78
2022-08-16T00:12:01.263Z,16.72
2022-08-16T00:13:01.247Z,16.72
2022-08-16T00:14:01.240Z,16.73
2022-08-16T00:15:02.242Z,16.75
2022-08-16T00:16:01.206Z,16.69
2022-08-16T00:17:16.267Z,16.69
2022-08-16T00:18:02.205Z,16.63
2022-08-16T00:19:01.166Z,16.62
2022-08-16T00:20:01.162Z,16.62
2022-08-16T00:21:01.146Z,16.50
2022-08-16T00:22:06.867Z,16.55
2022-08-16T00:23:02.131Z,16.55
2022-08-16T00:24:04.650Z,16.54
2022-08-16T00:25:01.080Z,16.57
2022-08-16T00:26:34.835Z,16.48
2022-08-16T00:27:02.083Z,16.47
2022-08-16T00:28:01.049Z,16.47
2022-08-16T00:29:01.029Z,16.37
2022-08-16T00:30:19.083Z,16.45
2022-08-16T00:31:02.027Z,16.41
2022-08-16T00:32:06.145Z,16.50
2022-08-16T00:33:00.971Z,16.42
2022-08-16T00:34:00.962Z,16.44
2022-08-16T00:35:01.733Z,16.44
2022-08-16T00:36:00.941Z,16.42
2022-08-16T00:37:00.923Z,16.52
2022-08-16T00:38:00.922Z,16.50
2022-08-16T00:39:01.916Z,16.52
2022-08-16T00:40:00.954Z,16.48
2022-08-16T00:41:00.863Z,16.40
2022-08-16T00:42:00.862Z,16.47
2022-08-16T00:43:00.862Z,16.48
2022-08-16T00:44:00.832Z,16.52
2022-08-16T00:45:00.820Z,16.45
2022-08-16T00:46:01.075Z,16.47
2022-08-16T00:47:06.347Z,16.47
2022-08-16T00:48:00.771Z,16.44
2022-08-16T00:49:00.759Z,16.50
2022-08-16T00:50:00.743Z,16.47
2022-08-16T00:51:00.729Z,16.36
2022-08-16T00:52:00.715Z,16.47
2022-08-16T00:53:00.699Z,16.54
2022-08-16T00:54:00.693Z,16.40
2022-08-16T00:55:00.678Z,16.52
2022-08-16T00:56:00.669Z,16.44
2022-08-16T00:57:00.652Z,16.45
2022-08-16T00:58:00.958Z,16.45
2022-08-16T00:59:01.350Z,16.36
2022-08-16T01:00:01.092Z,16.41
2022-08-16T01:01:00.616Z,16.48
2022-08-16T01:02:00.581Z,16.36
2022-08-16T01:03:01.592Z,16.34
2022-08-16T01:04:00.558Z,16.25
2022-08-16T01:05:11.241Z,16.30
2022-08-16T01:06:40.321Z,16.32
2022-08-16T01:07:02.661Z,16.27
2022-08-16T01:08:00.506Z,16.23
2022-08-16T01:09:00.544Z,16.17
2022-08-16T01:10:00.482Z,16.14
2022-08-16T01:11:02.611Z,16.16
2022-08-16T01:12:00.442Z,16.17
2022-08-16T01:13:00.462Z,16.06
2022-08-16T01:14:00.420Z,16.04
2022-08-16T01:15:00.418Z,16.03
2022-08-16T01:16:00.392Z,15.93
2022-08-16T01:17:00.381Z,15.91
2022-08-16T01:18:00.366Z,15.91
2022-08-16T01:19:00.349Z,15.92
2022-08-16T01:20:00.595Z,15.93
2022-08-16T01:21:00.325Z,15.95
2022-08-16T01:22:46.977Z,15.96
2022-08-16T01:23:01.665Z,15.88
2022-08-16T01:24:02.131Z,15.92
2022-08-16T01:25:00.274Z,15.86
2022-08-16T01:26:34.367Z,15.88
2022-08-16T01:27:03.984Z,15.86
2022-08-16T01:28:00.225Z,15.88
2022-08-16T01:29:00.219Z,15.84
2022-08-16T01:30:00.322Z,15.84
2022-08-16T01:31:00.193Z,15.89
2022-08-16T01:32:00.183Z,15.95
2022-08-16T01:33:14.396Z,15.74
2022-08-16T01:34:01.175Z,15.86
2022-08-16T01:35:00.131Z,15.76
2022-08-16T01:36:00.118Z,15.70
2022-08-16T01:37:00.111Z,15.84
2022-08-16T01:38:00.095Z,15.70
2022-08-16T01:39:00.083Z,15.77
2022-08-16T01:40:00.134Z,15.68
2022-08-16T01:41:02.046Z,15.71
2022-08-16T01:42:00.044Z,15.64
2022-08-16T01:43:00.025Z,15.73
2022-08-16T01:44:01.003Z,15.71
2022-08-16T01:45:00.001Z,15.73
2022-08-16T01:45:59.989Z,15.74
2022-08-16T01:47:00.999Z,15.67
2022-08-16T01:47:59.958Z,15.73
2022-08-16T01:48:59.950Z,15.71
2022-08-16T01:50:42.186Z,15.66
2022-08-16T01:51:08.264Z,15.70
2022-08-16T01:52:00.955Z,15.73
2022-08-16T01:52:59.888Z,15.81
2022-08-16T01:53:59.872Z,15.71
2022-08-16T01:54:59.859Z,15.66
2022-08-16T01:55:59.843Z,15.64
2022-08-16T01:56:59.835Z,15.66
2022-08-16T01:57:59.821Z,15.67
2022-08-16T01:58:59.812Z,15.71
2022-08-16T01:59:59.800Z,15.68
2022-08-16T02:00:59.785Z,15.64
2022-08-16T02:02:00.588Z,15.71
2022-08-16T02:02:59.759Z,15.71
2022-08-16T02:04:10.243Z,15.58
2022-08-16T02:05:00.751Z,15.60
2022-08-16T02:05:59.710Z,15.64
2022-08-16T02:06:59.703Z,15.59
2022-08-16T02:07:59.692Z,15.55
2022-08-16T02:08:59.678Z,15.58
2022-08-16T02:10:02.136Z,15.56
2022-08-16T02:10:59.644Z,15.62
2022-08-16T02:11:59.627Z,15.56
2022-08-16T02:13:01.165Z,15.46
2022-08-16T02:13:59.600Z,15.38
2022-08-16T02:14:59.594Z,15.41
2022-08-16T02:15:59.588Z,15.43
2022-08-16T02:16:59.568Z,15.37
2022-08-16T02:18:01.441Z,15.35
2022-08-16T02:18:59.539Z,15.31
2022-08-16T02:20:00.606Z,15.27
2022-08-16T02:20:59.576Z,15.27
2022-08-16T02:22:08.825Z,15.28
2022-08-16T02:23:01.541Z,15.18
2022-08-16T02:23:59.472Z,15.23
2022-08-16T02:24:59.458Z,15.25
2022-08-16T02:26:00.021Z,15.23
2022-08-16T02:26:59.433Z,15.07
2022-08-16T02:27:59.410Z,15.23
2022-08-16T02:28:59.405Z,15.23
2022-08-16T02:30:05.436Z,15.11
2022-08-16T02:31:01.369Z,15.15
2022-08-16T02:32:03.643Z,15.07
2022-08-16T02:33:00.366Z,15.15
2022-08-16T02:33:59.335Z,15.13
2022-08-16T02:35:00.344Z,15.22
2022-08-16T02:36:00.209Z,15.09
2022-08-16T02:36:59.288Z,14.98
2022-08-16T02:38:08.679Z,15.04
2022-08-16T02:39:00.292Z,15.01
2022-08-16T02:39:59.290Z,15.05
2022-08-16T02:40:59.241Z,15.09
2022-08-16T02:41:59.230Z,15.12
2022-08-16T02:42:59.213Z,15.01
2022-08-16T02:43:59.204Z,14.98
2022-08-16T02:44:59.182Z,15.03
2022-08-16T02:45:59.172Z,15.05
2022-08-16T02:46:59.158Z,15.03
2022-08-16T02:48:01.677Z,15.03
2022-08-16T02:49:00.392Z,15.00
2022-08-16T02:50:53.659Z,15.03
2022-08-16T02:51:06.766Z,14.95
2022-08-16T02:52:00.117Z,14.95
2022-08-16T02:52:59.077Z,14.95
2022-08-16T02:53:59.198Z,14.98
2022-08-16T02:54:59.047Z,15.00
2022-08-16T02:55:59.216Z,14.98
2022-08-16T02:56:59.017Z,14.93
2022-08-16T02:57:59.011Z,14.93
2022-08-16T02:58:58.989Z,14.91
2022-08-16T02:59:58.983Z,14.94
2022-08-16T03:00:59.031Z,15.09
2022-08-16T03:01:59.014Z,15.07
2022-08-16T03:02:58.942Z,15.01
2022-08-16T03:04:41.538Z,15.04
2022-08-16T03:04:59.938Z,15.01
2022-08-16T03:05:58.910Z,15.04
2022-08-16T03:06:58.887Z,14.94
2022-08-16T03:07:58.876Z,15.00
2022-08-16T03:08:58.865Z,14.95
2022-08-16T03:10:00.472Z,15.05
2022-08-16T03:10:59.226Z,15.03
2022-08-16T03:11:58.817Z,15.05
2022-08-16T03:12:59.185Z,15.00
2022-08-16T03:13:58.791Z,15.11
2022-08-16T03:14:58.779Z,15.04
2022-08-16T03:15:58.768Z,15.05
2022-08-16T03:17:00.735Z,15.11
2022-08-16T03:17:58.747Z,15.12
2022-08-16T03:18:58.726Z,15.04
2022-08-16T03:20:02.567Z,15.04
2022-08-16T03:20:58.693Z,15.11
2022-08-16T03:21:58.686Z,15.07
2022-08-16T03:22:58.667Z,15.13
2022-08-16T03:23:58.657Z,15.01
2022-08-16T03:24:58.645Z,15.00
2022-08-16T03:25:58.629Z,14.98
2022-08-16T03:26:58.762Z,14.97
2022-08-16T03:27:58.607Z,15.03
2022-08-16T03:28:58.595Z,14.93
2022-08-16T03:29:58.579Z,14.90
2022-08-16T03:30:58.565Z,14.97
2022-08-16T03:31:59.293Z,15.00
2022-08-16T03:32:58.536Z,14.86
2022-08-16T03:33:58.528Z,14.79
2022-08-16T03:34:58.506Z,14.87
2022-08-16T03:35:58.498Z,14.78
2022-08-16T03:36:58.479Z,14.57
2022-08-16T03:38:02.631Z,14.63
2022-08-16T03:38:58.449Z,14.69
2022-08-16T03:40:02.714Z,14.66
2022-08-16T03:40:58.424Z,14.64
2022-08-16T03:42:00.090Z,14.53
2022-08-16T03:43:00.450Z,14.57
2022-08-16T03:43:59.421Z,14.60
2022-08-16T03:45:03.463Z,14.69
2022-08-16T03:45:58.366Z,14.59
2022-08-16T03:46:58.377Z,14.66
2022-08-16T03:47:59.958Z,14.60
2022-08-16T03:48:58.316Z,14.64
2022-08-16T03:49:59.399Z,14.49
2022-08-16T03:51:00.145Z,14.52
2022-08-16T03:51:58.291Z,14.56
2022-08-16T03:53:05.399Z,14.49
2022-08-16T03:54:01.169Z,14.53
2022-08-16T03:54:59.423Z,14.60
2022-08-16T03:55:58.234Z,14.60
2022-08-16T03:56:58.736Z,14.59
2022-08-16T03:57:58.199Z,14.56
2022-08-16T03:58:58.183Z,14.60
2022-08-16T03:59:58.166Z,14.57
2022-08-16T04:00:59.426Z,14.57
2022-08-16T04:01:58.139Z,14.61
2022-08-16T04:02:58.124Z,14.64
2022-08-16T04:03:58.119Z,14.61
2022-08-16T04:04:58.095Z,14.60
2022-08-16T04:05:58.091Z,14.60
2022-08-16T04:06:58.075Z,14.52
2022-08-16T04:07:58.060Z,14.52
2022-08-16T04:08:58.049Z,14.52
2022-08-16T04:09:58.033Z,14.56
2022-08-16T04:10:58.193Z,14.52
2022-08-16T04:11:58.001Z,14.53
2022-08-16T04:13:04.152Z,14.54
2022-08-16T04:14:33.019Z,14.53
2022-08-16T04:14:58.989Z,14.56
2022-08-16T04:15:57.956Z,14.59
2022-08-16T04:16:57.932Z,14.53
2022-08-16T04:17:57.932Z,14.48
2022-08-16T04:19:02.170Z,14.49
2022-08-16T04:19:59.897Z,14.45
2022-08-16T04:20:57.879Z,14.46
2022-08-16T04:21:57.865Z,14.59
2022-08-16T04:22:57.850Z,14.54
2022-08-16T04:23:57.837Z,14.57
2022-08-16T04:24:59.288Z,14.48
2022-08-16T04:25:57.815Z,14.48
2022-08-16T04:26:57.793Z,14.52
2022-08-16T04:27:58.310Z,14.54
2022-08-16T04:29:15.033Z,14.49
2022-08-16T04:30:02.811Z,14.60
2022-08-16T04:30:57.735Z,14.61
2022-08-16T04:31:58.295Z,14.56
2022-08-16T04:32:57.706Z,14.59
2022-08-16T04:33:57.697Z,14.63
2022-08-16T04:34:57.680Z,14.60
2022-08-16T04:35:57.676Z,14.60
2022-08-16T04:36:57.652Z,14.63
2022-08-16T04:37:57.644Z,14.59
2022-08-16T04:38:57.627Z,14.60
2022-08-16T04:39:57.702Z,14.56
2022-08-16T04:40:57.934Z,14.60
2022-08-16T04:41:57.592Z,14.67
2022-08-16T04:42:57.576Z,14.59
2022-08-16T04:43:57.561Z,14.61
2022-08-16T04:44:57.690Z,14.63
2022-08-16T04:46:00.208Z,14.75
2022-08-16T04:47:02.528Z,14.72
2022-08-16T04:47:57.508Z,14.66
2022-08-16T04:48:57.499Z,14.64
2022-08-16T04:49:57.477Z,14.75
2022-08-16T04:50:57.458Z,14.63
2022-08-16T04:51:57.445Z,14.78
2022-08-16T04:52:57.429Z,14.74
2022-08-16T04:53:57.419Z,14.80
2022-08-16T04:54:57.420Z,14.80
2022-08-16T04:55:57.399Z,14.80
2022-08-16T04:56:57.378Z,14.80
2022-08-16T04:57:57.365Z,14.79
2022-08-16T04:58:57.614Z,14.75
2022-08-16T04:59:57.341Z,14.83
2022-08-16T05:00:57.324Z,14.80
2022-08-16T05:01:58.712Z,14.85
2022-08-16T05:02:58.915Z,14.85
2022-08-16T05:04:00.704Z,14.93
2022-08-16T05:04:57.262Z,14.86
2022-08-16T05:06:04.999Z,14.91
2022-08-16T05:06:58.256Z,14.91
2022-08-16T05:07:59.436Z,15.01
2022-08-16T05:08:57.209Z,15.11
2022-08-16T05:09:57.197Z,15.03
2022-08-16T05:10:58.747Z,15.11
2022-08-16T05:11:57.799Z,15.07
2022-08-16T05:12:57.159Z,15.12
2022-08-16T05:13:57.149Z,15.20
2022-08-16T05:15:01.823Z,15.22
2022-08-16T05:15:57.113Z,15.16
2022-08-16T05:16:57.102Z,15.27
2022-08-16T05:17:59.061Z,15.35
2022-08-16T05:18:58.437Z,15.40
2022-08-16T05:19:58.494Z,15.46
2022-08-16T05:21:09.430Z,15.51
2022-08-16T05:21:58.135Z,15.49
2022-08-16T05:22:57.023Z,15.52
2022-08-16T05:24:00.080Z,15.62
2022-08-16T05:24:56.993Z,15.56
2022-08-16T05:25:56.980Z,15.71
2022-08-16T05:26:56.975Z,15.73
2022-08-16T05:27:56.953Z,15.78
2022-08-16T05:28:56.948Z,15.88
2022-08-16T05:30:01.943Z,15.88
2022-08-16T05:30:57.936Z,15.92
2022-08-16T05:31:56.903Z,15.91
2022-08-16T05:32:56.890Z,15.93
2022-08-16T05:33:56.875Z,15.98
2022-08-16T05:34:56.860Z,16.07
2022-08-16T05:35:56.840Z,16.08
2022-08-16T05:36:56.829Z,16.04
2022-08-16T05:37:56.814Z,16.25
2022-08-16T05:38:58.151Z,16.23
2022-08-16T05:39:56.809Z,16.36
2022-08-16T05:40:59.531Z,16.32
2022-08-16T05:41:56.760Z,16.30
2022-08-16T05:42:56.893Z,16.41
2022-08-16T05:43:59.171Z,16.47
2022-08-16T05:44:56.728Z,16.69
2022-08-16T05:45:56.710Z,16.72
2022-08-16T05:46:56.698Z,16.82
2022-08-16T05:47:59.510Z,17.02
2022-08-16T05:49:01.725Z,17.18
2022-08-16T05:49:57.681Z,17.36
2022-08-16T05:50:56.639Z,17.57
2022-08-16T05:51:56.625Z,17.71
2022-08-16T05:52:56.617Z,17.92
2022-08-16T05:53:56.602Z,18.13
2022-08-16T05:54:58.492Z,18.36
2022-08-16T05:55:56.574Z,18.35
2022-08-16T05:56:56.565Z,18.56
2022-08-16T05:57:56.549Z,18.69
2022-08-16T05:58:56.533Z,18.83
2022-08-16T06:00:00.284Z,19.01
2022-08-16T06:00:56.504Z,19.02
2022-08-16T06:01:56.563Z,19.24
2022-08-16T06:02:56.482Z,19.49
2022-08-16T06:03:56.462Z,19.68
2022-08-16T06:04:56.453Z,19.83
2022-08-16T06:05:56.436Z,19.92
2022-08-16T06:06:57.478Z,19.82
2022-08-16T06:07:58.270Z,19.95
2022-08-16T06:08:56.403Z,20.05
2022-08-16T06:09:56.403Z,20.17
2022-08-16T06:11:04.654Z,20.33
2022-08-16T06:11:57.383Z,20.57
2022-08-16T06:12:56.415Z,20.78
2022-08-16T06:13:56.332Z,20.91
2022-08-16T06:14:56.319Z,21.13
2022-08-16T06:15:56.305Z,21.21
2022-08-16T06:16:56.297Z,21.38
2022-08-16T06:17:57.304Z,21.58
2022-08-16T06:18:56.272Z,21.66
2022-08-16T06:19:56.249Z,21.89
2022-08-16T06:20:56.239Z,21.96
2022-08-16T06:21:56.222Z,22.04
2022-08-16T06:22:58.769Z,22.27
2022-08-16T06:23:57.228Z,22.15
2022-08-16T06:24:56.209Z,22.08
2022-08-16T06:25:56.172Z,22.15
2022-08-16T06:26:57.858Z,22.17
2022-08-16T06:27:57.582Z,22.23
2022-08-16T06:28:56.132Z,22.23
2022-08-16T06:29:56.115Z,22.46
2022-08-16T06:30:56.112Z,22.59
2022-08-16T06:31:56.091Z,22.67
2022-08-16T06:32:56.083Z,22.57
2022-08-16T06:33:56.065Z,22.41
2022-08-16T06:35:02.863Z,22.15
2022-08-16T06:35:59.476Z,21.86
2022-08-16T06:36:59.393Z,21.81
2022-08-16T06:37:56.010Z,21.49
2022-08-16T06:38:56.968Z,21.42
2022-08-16T06:39:56.072Z,21.85
2022-08-16T06:40:55.977Z,22.11
2022-08-16T06:41:55.958Z,22.41
2022-08-16T06:42:57.592Z,22.60
2022-08-16T06:43:55.926Z,22.81
2022-08-16T06:44:55.915Z,22.91
2022-08-16T06:45:55.901Z,23.00
2022-08-16T06:46:55.896Z,23.09
2022-08-16T06:47:56.418Z,23.09
2022-08-16T06:48:55.871Z,22.96
2022-08-16T06:49:55.852Z,22.75
2022-08-16T06:50:55.843Z,22.82
2022-08-16T06:52:03.146Z,22.69
2022-08-16T06:53:17.192Z,22.51
2022-08-16T06:53:56.822Z,22.36
2022-08-16T06:54:55.784Z,22.19
2022-08-16T06:55:55.768Z,22.08
2022-08-16T06:56:55.761Z,22.14
2022-08-16T06:57:55.742Z,21.99
2022-08-16T06:58:55.738Z,21.90
2022-08-16T06:59:58.379Z,21.99
2022-08-16T07:00:55.801Z,22.20
2022-08-16T07:01:58.270Z,22.27
2022-08-16T07:02:56.085Z,22.45
2022-08-16T07:03:57.070Z,22.75
2022-08-16T07:04:55.652Z,22.89
2022-08-16T07:05:55.636Z,22.93
2022-08-16T07:06:55.632Z,22.99
2022-08-16T07:07:55.609Z,23.04
2022-08-16T07:08:55.602Z,23.03
2022-08-16T07:09:55.590Z,22.96
2022-08-16T07:10:55.611Z,22.64
2022-08-16T07:11:55.559Z,22.54
2022-08-16T07:13:03.356Z,22.36
2022-08-16T07:14:03.701Z,22.41
2022-08-16T07:14:59.947Z,22.42
2022-08-16T07:15:55.510Z,22.44
2022-08-16T07:16:55.496Z,22.36
2022-08-16T07:17:55.484Z,22.46
2022-08-16T07:18:58.761Z,22.56
2022-08-16T07:20:30.177Z,22.54
2022-08-16T07:20:59.995Z,22.54
2022-08-16T07:21:59.704Z,22.51
2022-08-16T07:22:59.129Z,22.45
2022-08-16T07:23:57.991Z,22.59
2022-08-16T07:24:56.412Z,22.66
2022-08-16T07:25:55.377Z,22.75
2022-08-16T07:26:55.364Z,22.76
2022-08-16T07:27:55.347Z,23.01
2022-08-16T07:28:55.339Z,23.31
2022-08-16T07:29:56.348Z,23.35
2022-08-16T07:30:55.318Z,23.57
2022-08-16T07:31:55.299Z,23.72
2022-08-16T07:32:55.280Z,23.86
2022-08-16T07:33:55.344Z,24.06
2022-08-16T07:34:55.260Z,24.26
2022-08-16T07:35:55.239Z,24.37
2022-08-16T07:36:58.216Z,24.56
2022-08-16T07:37:55.284Z,24.97
2022-08-16T07:38:55.206Z,25.02
2022-08-16T07:39:55.241Z,24.94
2022-08-16T07:41:09.734Z,25.27
2022-08-16T07:41:56.188Z,25.82
2022-08-16T07:42:55.180Z,26.35
2022-08-16T07:43:55.133Z,26.68
2022-08-16T07:44:55.124Z,26.94
2022-08-16T07:45:55.112Z,26.90
2022-08-16T07:46:55.479Z,27.28
2022-08-16T07:47:55.080Z,27.31
2022-08-16T07:48:55.169Z,27.76
2022-08-16T07:49:57.935Z,27.95
2022-08-16T07:50:58.934Z,28.40
2022-08-16T07:51:56.143Z,28.73
2022-08-16T07:52:55.027Z,29.03
2022-08-16T07:54:02.599Z,28.83
2022-08-16T07:54:56.017Z,29.05
2022-08-16T07:55:54.976Z,29.23
2022-08-16T07:56:54.973Z,29.37
2022-08-16T07:58:01.106Z,29.63
2022-08-16T07:58:57.921Z,29.97
2022-08-16T07:59:57.157Z,30.25
2022-08-16T08:00:54.968Z,30.38
2022-08-16T08:01:54.898Z,30.44
2022-08-16T08:02:54.898Z,30.40
2022-08-16T08:03:54.878Z,30.64
2022-08-16T08:04:54.863Z,30.88
2022-08-16T08:05:54.853Z,30.93
2022-08-16T08:06:54.836Z,31.00
2022-08-16T08:07:54.821Z,31.18
2022-08-16T08:08:57.230Z,31.23
2022-08-16T08:09:54.798Z,31.22
2022-08-16T08:10:54.795Z,30.98
2022-08-16T08:12:00.925Z,30.23
2022-08-16T08:12:55.779Z,30.07
2022-08-16T08:13:54.750Z,29.85
2022-08-16T08:14:54.747Z,30.07
2022-08-16T08:15:54.733Z,30.04
2022-08-16T08:16:54.721Z,29.94
2022-08-16T08:17:54.708Z,29.36
2022-08-16T08:18:56.041Z,28.97
2022-08-16T08:19:55.703Z,29.00
2022-08-16T08:20:59.608Z,29.23
2022-08-16T08:21:59.258Z,29.55
2022-08-16T08:23:00.664Z,29.91
2022-08-16T08:23:54.622Z,30.28
2022-08-16T08:24:59.091Z,30.78
2022-08-16T08:25:55.810Z,31.07
2022-08-16T08:26:54.587Z,31.35
2022-08-16T08:27:57.530Z,31.46
2022-08-16T08:28:54.567Z,31.34
2022-08-16T08:30:50.610Z,31.30
2022-08-16T08:31:01.129Z,31.41
2022-08-16T08:31:55.547Z,31.68
2022-08-16T08:32:59.992Z,32.12
2022-08-16T08:33:55.521Z,32.63
2022-08-16T08:34:54.497Z,33.12
2022-08-16T08:35:54.479Z,32.73
2022-08-16T08:36:54.742Z,32.39
2022-08-16T08:37:56.269Z,32.69
2022-08-16T08:38:54.443Z,32.77
2022-08-16T08:39:55.150Z,32.58
2022-08-16T08:40:54.413Z,31.99
2022-08-16T08:41:55.079Z,31.07
2022-08-16T08:42:57.615Z,30.25
2022-08-16T08:43:54.379Z,29.84
2022-08-16T08:44:54.372Z,29.67
2022-08-16T08:45:54.352Z,29.26
2022-08-16T08:47:00.703Z,28.95
2022-08-16T08:47:58.613Z,29.62
2022-08-16T08:48:59.644Z,30.23
2022-08-16T08:49:58.097Z,30.91
2022-08-16T08:50:54.302Z,30.07
2022-08-16T08:51:54.289Z,29.48
2022-08-16T08:52:54.277Z,28.82
2022-08-16T08:53:57.353Z,28.28
2022-08-16T08:54:54.245Z,28.92
2022-08-16T08:55:59.248Z,29.94
2022-08-16T08:56:54.224Z,30.68
2022-08-16T08:57:54.205Z,30.86
2022-08-16T08:58:58.302Z,30.45
2022-08-16T08:59:54.196Z,29.79
2022-08-16T09:00:54.174Z,29.97
2022-08-16T09:01:58.148Z,29.48
2022-08-16T09:02:54.405Z,29.73
2022-08-16T09:03:54.160Z,30.32
2022-08-16T09:04:54.132Z,30.19
2022-08-16T09:05:54.119Z,29.78
2022-08-16T09:06:54.112Z,29.29
2022-08-16T09:08:00.413Z,28.92
2022-08-16T09:08:55.102Z,29.25
2022-08-16T09:10:06.144Z,30.25
2022-08-16T09:11:02.287Z,31.05
2022-08-16T09:12:06.360Z,30.78
2022-08-16T09:12:55.044Z,30.45
2022-08-16T09:13:54.012Z,29.94
2022-08-16T09:14:54.003Z,29.70
2022-08-16T09:15:53.986Z,30.25
2022-08-16T09:17:01.580Z,29.67
2022-08-16T09:17:55.103Z,29.20
2022-08-16T09:18:54.019Z,29.17
2022-08-16T09:19:55.624Z,30.00
2022-08-16T09:20:58.389Z,30.81
2022-08-16T09:21:55.981Z,31.56
2022-08-16T09:22:54.485Z,31.85
2022-08-16T09:23:53.892Z,32.66
2022-08-16T09:24:54.206Z,32.91
2022-08-16T09:25:54.892Z,33.05
2022-08-16T09:26:53.858Z,33.12
2022-08-16T09:27:58.038Z,32.24
2022-08-16T09:29:15.049Z,32.50
2022-08-16T09:30:00.397Z,32.19
2022-08-16T09:30:54.823Z,31.65
2022-08-16T09:31:53.891Z,31.25
2022-08-16T09:32:53.786Z,30.57
2022-08-16T09:33:53.771Z,30.10
2022-08-16T09:34:53.762Z,29.71
2022-08-16T09:35:54.414Z,30.23
2022-08-16T09:36:54.550Z,30.93
2022-08-16T09:38:00.968Z,30.21
2022-08-16T09:38:59.944Z,30.60
2022-08-16T09:39:53.730Z,30.82
2022-08-16T09:40:53.714Z,31.10
2022-08-16T09:41:54.263Z,30.60
2022-08-16T09:42:56.059Z,30.23
2022-08-16T09:44:00.612Z,29.89
2022-08-16T09:45:11.227Z,29.47
2022-08-16T09:45:54.693Z,29.18
2022-08-16T09:46:57.550Z,29.10
2022-08-16T09:47:57.120Z,28.95
2022-08-16T09:48:53.593Z,28.69
2022-08-16T09:49:53.578Z,28.67
2022-08-16T09:50:53.559Z,28.54
2022-08-16T09:51:53.698Z,29.11
2022-08-16T09:52:53.534Z,30.13
2022-08-16T09:53:53.723Z,30.93
2022-08-16T09:54:53.508Z,31.67
2022-08-16T09:55:53.502Z,32.06
2022-08-16T09:56:53.851Z,32.62
2022-08-16T09:57:53.478Z,33.34
2022-08-16T09:59:04.848Z,33.89
2022-08-16T09:59:56.510Z,34.12
2022-08-16T10:00:53.441Z,33.35
2022-08-16T10:01:53.436Z,33.65
2022-08-16T10:02:53.457Z,33.47
2022-08-16T10:04:01.785Z,33.55
2022-08-16T10:04:55.296Z,32.68
2022-08-16T10:05:53.386Z,32.03
2022-08-16T10:06:53.412Z,31.52
2022-08-16T10:07:56.639Z,31.10
2022-08-16T10:09:04.414Z,31.78
2022-08-16T10:09:56.043Z,32.69
2022-08-16T10:10:53.318Z,33.45
2022-08-16T10:11:53.523Z,33.11
2022-08-16T10:12:55.927Z,32.59
2022-08-16T10:13:53.295Z,31.56
2022-08-16T10:14:53.266Z,30.97
2022-08-16T10:15:55.449Z,30.38
2022-08-16T10:16:59.552Z,30.72
2022-08-16T10:18:01.521Z,31.46
2022-08-16T10:19:01.375Z,32.22
2022-08-16T10:19:54.229Z,32.98
2022-08-16T10:20:53.198Z,33.86
2022-08-16T10:21:56.315Z,34.28
2022-08-16T10:23:02.065Z,34.63
2022-08-16T10:23:54.810Z,34.78
2022-08-16T10:24:55.916Z,34.81
2022-08-16T10:27:18.379Z,35.32
2022-08-16T10:27:18.900Z,35.06
2022-08-16T10:28:05.883Z,35.59
2022-08-16T10:28:54.126Z,35.34
2022-08-16T10:30:00.317Z,34.88
2022-08-16T10:30:56.526Z,34.14
2022-08-16T10:31:53.461Z,33.60
2022-08-16T10:32:53.056Z,33.02
2022-08-16T10:33:53.052Z,32.34
2022-08-16T10:34:53.032Z,31.94
2022-08-16T10:35:53.030Z,31.57
2022-08-16T10:36:54.287Z,31.35
2022-08-16T10:37:53.009Z,31.16
2022-08-16T10:38:53.076Z,30.94
2022-08-16T10:39:53.003Z,31.90
2022-08-16T10:40:52.986Z,31.97
2022-08-16T10:41:52.956Z,31.34
2022-08-16T10:42:52.942Z,30.88
2022-08-16T10:43:53.045Z,30.76
2022-08-16T10:44:53.684Z,30.75
2022-08-16T10:45:57.299Z,30.83
2022-08-16T10:46:53.917Z,30.56
2022-08-16T10:48:00.671Z,30.36
2022-08-16T10:48:53.890Z,30.06
2022-08-16T10:49:52.856Z,29.79
2022-08-16T10:50:52.850Z,29.70
2022-08-16T10:52:01.175Z,29.52
2022-08-16T10:52:56.825Z,29.39
2022-08-16T10:53:52.834Z,29.29
2022-08-16T10:55:40.347Z,29.08
2022-08-16T10:55:57.834Z,29.05
2022-08-16T10:56:56.794Z,30.04
2022-08-16T10:57:52.763Z,30.78
2022-08-16T10:58:52.806Z,31.38
2022-08-16T10:59:58.273Z,32.14
2022-08-16T11:00:57.173Z,32.56
2022-08-16T11:02:58.725Z,33.11
2022-08-16T11:03:54.574Z,33.57
2022-08-16T11:05:09.394Z,34.30
2022-08-16T11:06:00.942Z,34.69
2022-08-16T11:07:43.026Z,34.87
2022-08-16T11:07:54.107Z,35.43
2022-08-16T11:09:20.989Z,35.68
2022-08-16T11:09:53.916Z,36.02
2022-08-16T11:11:07.057Z,36.08
2022-08-16T11:12:13.676Z,35.89
2022-08-16T11:12:53.600Z,35.36
2022-08-16T11:14:10.604Z,35.46
2022-08-16T11:15:55.908Z,36.05
2022-08-16T11:17:09.544Z,36.23
2022-08-16T11:19:03.222Z,36.12
2022-08-16T11:19:04.503Z,35.20
2022-08-16T11:20:36.638Z,34.65
2022-08-16T11:20:53.516Z,34.60
2022-08-16T11:22:52.465Z,35.68
2022-08-16T11:23:58.085Z,36.00
2022-08-16T11:26:16.266Z,34.98
2022-08-16T11:27:52.404Z,34.83
2022-08-16T11:29:52.904Z,35.31
2022-08-16T11:30:57.335Z,35.59
2022-08-16T11:31:53.948Z,35.83
2022-08-16T11:32:52.341Z,36.16
2022-08-16T11:33:52.840Z,35.87
2022-08-16T11:35:14.122Z,35.92
2022-08-16T11:36:53.853Z,36.25
2022-08-16T11:38:47.665Z,35.99
2022-08-16T11:38:57.587Z,35.87
2022-08-16T11:39:55.410Z,35.85
2022-08-16T11:40:53.432Z,36.03
2022-08-16T11:41:53.046Z,36.15
2022-08-16T11:42:52.230Z,35.85
2022-08-16T11:43:52.221Z,36.30
2022-08-16T11:44:56.283Z,35.47
2022-08-16T11:45:53.906Z,34.65
2022-08-16T11:46:52.188Z,33.77
2022-08-16T11:47:52.182Z,33.65
2022-08-16T11:48:52.171Z,34.27
2022-08-16T11:49:52.157Z,34.99
2022-08-16T11:50:52.136Z,35.87
2022-08-16T11:51:52.140Z,36.65
2022-08-16T11:52:52.114Z,36.87
2022-08-16T11:53:52.109Z,36.97
2022-08-16T11:54:53.935Z,36.97
2022-08-16T11:55:54.871Z,36.86
2022-08-16T11:56:56.888Z,36.89
2022-08-16T11:57:57.362Z,36.97
2022-08-16T11:58:57.005Z,36.89
2022-08-16T11:59:53.714Z,37.11
2022-08-16T12:00:53.497Z,37.43
2022-08-16T12:01:55.261Z,37.84
2022-08-16T12:02:53.044Z,38.03
2022-08-16T12:03:52.087Z,38.14
2022-08-16T12:04:52.160Z,38.26
2022-08-16T12:05:52.215Z,38.43
2022-08-16T12:06:53.559Z,38.78
2022-08-16T12:07:51.952Z,38.62
2022-08-16T12:08:51.943Z,37.60
2022-08-16T12:09:53.158Z,37.62
2022-08-16T12:10:51.918Z,37.88
2022-08-16T12:11:52.654Z,38.16
2022-08-16T12:12:52.108Z,38.37
2022-08-16T12:13:51.885Z,38.21
2022-08-16T12:14:59.800Z,37.85
2022-08-16T12:15:52.904Z,38.14
2022-08-16T12:16:55.564Z,37.85
2022-08-16T12:17:51.852Z,37.62
2022-08-16T12:18:51.841Z,37.18
2022-08-16T12:19:51.829Z,37.50
2022-08-16T12:20:51.809Z,37.62
2022-08-16T12:21:58.394Z,37.62
2022-08-16T12:22:52.813Z,37.58
2022-08-16T12:23:51.784Z,37.77
2022-08-16T12:24:52.547Z,37.60
2022-08-16T12:25:51.764Z,37.59
2022-08-16T12:26:51.751Z,37.21
2022-08-16T12:27:51.743Z,37.53
2022-08-16T12:28:54.763Z,37.40
2022-08-16T12:29:51.728Z,37.58
2022-08-16T12:30:51.703Z,37.68
2022-08-16T12:32:01.224Z,37.70
2022-08-16T12:32:54.581Z,37.56
2022-08-16T12:33:54.588Z,37.63
2022-08-16T12:34:53.215Z,37.66
2022-08-16T12:35:51.659Z,37.58
2022-08-16T12:36:51.648Z,37.46
2022-08-16T12:37:55.463Z,37.21
2022-08-16T12:38:53.072Z,36.71
2022-08-16T12:39:52.030Z,36.77
2022-08-16T12:40:55.558Z,36.72
2022-08-16T12:41:51.593Z,37.06
2022-08-16T12:42:52.941Z,37.40
2022-08-16T12:43:51.572Z,37.39
2022-08-16T12:44:51.557Z,37.13
2022-08-16T12:45:51.545Z,37.25
2022-08-16T12:46:51.528Z,37.59
2022-08-16T12:47:53.260Z,37.90
2022-08-16T12:48:52.795Z,37.84
2022-08-16T12:49:51.496Z,37.99
2022-08-16T12:50:51.496Z,37.99
2022-08-16T12:51:58.059Z,37.62
2022-08-16T12:52:53.523Z,37.08
2022-08-16T12:53:51.478Z,36.77
2022-08-16T12:54:54.951Z,36.62
2022-08-16T12:55:51.434Z,36.65
2022-08-16T12:56:51.418Z,36.67
2022-08-16T12:57:58.243Z,36.89
2022-08-16T12:58:52.654Z,37.25